Time;durP1;ratioP1;P1;durP2;ratioP2;P2;SDS_P1;SDS_P2;PMS_P1;PMS_P2;Temp;Humidity;BMP_temperature;BMP_pressure;BME280_temperature;BME280_humidity;BME280_pressure;Samples;Min_cycle;Max_cycle;Signal;HPM_P1;HPM_P2
2022/11/27 00:01:36;;;;;;;;;14.75;9.00;;;;;;;;5061478;28;61738;-82
2022/11/27 00:04:02;;;;;;;;;10.50;7.00;;;;;;;;5062312;28;61750;-82
2022/11/27 00:06:28;;;;;;;;;13.00;9.00;;;;;;;;5061502;28;61900;-82
2022/11/27 00:08:57;;;;;;;;;10.50;8.00;;;;;;;;5062150;28;62091;-82
2022/11/27 00:11:23;;;;;;;;;7.75;7.75;;;;;;;;5043129;28;64604;-82
2022/11/27 00:13:49;;;;;;;;;9.25;7.00;;;;;;;;5062034;28;61699;-82
2022/11/27 00:16:14;;;;;;;;;13.00;8.00;;;;;;;;5043689;28;61947;-82
2022/11/27 00:18:40;;;;;;;;;15.00;9.00;;;;;;;;5061568;28;61806;-82
2022/11/27 00:21:07;;;;;;;;;8.75;4.75;;;;;;;;5042901;28;64123;-82
2022/11/27 00:23:34;;;;;;;;;9.50;7.75;;;;;;;;5043418;28;61925;-82
2022/11/27 00:25:59;;;;;;;;;9.00;8.00;;;;;;;;5061532;28;61659;-82
2022/11/27 00:28:24;;;;;;;;;12.25;8.25;;;;;;;;5062158;28;61851;-82
2022/11/27 00:30:49;;;;;;;;;10.25;8.00;;;;;;;;5061213;28;61927;-82
2022/11/27 00:33:15;;;;;;;;;11.25;5.50;;;;;;;;5061777;28;61919;-82
2022/11/27 00:35:40;;;;;;;;;16.75;7.75;;;;;;;;5061641;28;61844;-82
2022/11/27 00:38:05;;;;;;;;;5.50;0.00;;;;;;;;5061688;28;62296;-81
2022/11/27 00:40:31;;;;;;;;;8.50;6.50;;;;;;;;5060775;28;62660;-82
2022/11/27 00:42:56;;;;;;;;;6.00;6.00;;;;;;;;5061674;28;61924;-81
2022/11/27 00:45:21;;;;;;;;;9.00;7.00;;;;;;;;5061499;28;61805;-81
2022/11/27 00:47:47;;;;;;;;;8.00;7.00;;;;;;;;5061384;28;61771;-81
2022/11/27 00:50:12;;;;;;;;;8.00;6.75;;;;;;;;5060604;28;61757;-82
2022/11/27 00:52:37;;;;;;;;;10.50;7.50;;;;;;;;5061177;28;61840;-82
2022/11/27 00:55:03;;;;;;;;;6.75;5.00;;;;;;;;5043150;28;62556;-82
2022/11/27 00:57:28;;;;;;;;;7.00;7.00;;;;;;;;5043396;28;61885;-82
2022/11/27 00:59:53;;;;;;;;;10.00;8.25;;;;;;;;5060669;28;61754;-82
2022/11/27 01:02:18;;;;;;;;;11.50;6.25;;;;;;;;5043090;28;62022;-82
2022/11/27 01:04:44;;;;;;;;;12.00;8.75;;;;;;;;5061588;28;61976;-82
2022/11/27 01:07:10;;;;;;;;;8.25;7.75;;;;;;;;5061076;28;61823;-82
2022/11/27 01:09:35;;;;;;;;;9.50;7.00;;;;;;;;5060707;28;61900;-82
2022/11/27 01:12:00;;;;;;;;;8.00;6.00;;;;;;;;5060911;28;62010;-81
2022/11/27 01:14:25;;;;;;;;;14.00;8.00;;;;;;;;5061282;28;61940;-82
2022/11/27 01:16:51;;;;;;;;;6.00;6.00;;;;;;;;5061575;28;61875;-82
2022/11/27 01:19:16;;;;;;;;;13.00;7.50;;;;;;;;5061791;28;61839;-82
2022/11/27 01:21:42;;;;;;;;;7.00;6.25;;;;;;;;5064587;28;61845;-82
2022/11/27 01:24:07;;;;;;;;;7.75;6.75;;;;;;;;5063923;28;61897;-82
2022/11/27 01:26:32;;;;;;;;;13.00;9.00;;;;;;;;5046388;28;62057;-82
2022/11/27 01:28:58;;;;;;;;;8.00;7.75;;;;;;;;5045915;28;64714;-82
2022/11/27 01:31:25;;;;;;;;;6.50;6.50;;;;;;;;5064523;28;61727;-82
2022/11/27 01:33:54;;;;;;;;;4.25;3.25;;;;;;;;5064215;28;61738;-82
2022/11/27 01:36:20;;;;;;;;;6.25;6.25;;;;;;;;5064573;28;61878;-82
2022/11/27 01:38:45;;;;;;;;;12.00;7.00;;;;;;;;5063456;28;61941;-82
2022/11/27 01:41:10;;;;;;;;;8.50;3.25;;;;;;;;5063997;28;61806;-82
2022/11/27 01:43:36;;;;;;;;;10.75;7.50;;;;;;;;5064690;28;61792;-82
2022/11/27 01:46:01;;;;;;;;;8.50;6.00;;;;;;;;5064197;28;62267;-82
2022/11/27 01:48:26;;;;;;;;;9.50;7.25;;;;;;;;5063447;28;62787;-82
2022/11/27 01:50:51;;;;;;;;;7.25;7.00;;;;;;;;5064137;28;61784;-82
2022/11/27 01:53:18;;;;;;;;;8.00;6.00;;;;;;;;5063630;28;61903;-82
2022/11/27 01:55:47;;;;;;;;;8.50;8.50;;;;;;;;5064453;28;61889;-82
2022/11/27 01:58:14;;;;;;;;;8.00;6.75;;;;;;;;5063530;28;61776;-82
2022/11/27 02:00:39;;;;;;;;;9.25;7.50;;;;;;;;5063561;28;61929;-82
2022/11/27 02:03:06;;;;;;;;;9.00;7.00;;;;;;;;5063849;28;62060;-82
2022/11/27 02:05:32;;;;;;;;;12.75;6.00;;;;;;;;5064344;28;61941;-82
2022/11/27 02:07:58;;;;;;;;;0.25;0.25;;;;;;;;5062382;28;62459;-82
2022/11/27 02:10:34;;;;;;;;;11.25;8.25;;;;;;;;5045330;28;62029;-82
2022/11/27 02:13:11;;;;;;;;;7.00;5.75;;;;;;;;5064211;28;61800;-82
2022/11/27 02:15:52;;;;;;;;;8.00;5.50;;;;;;;;5064091;28;61746;-82
2022/11/27 02:18:17;;;;;;;;;6.00;6.00;;;;;;;;5063172;28;62001;-82
2022/11/27 02:21:01;;;;;;;;;5.00;5.00;;;;;;;;5063426;28;61920;-82
2022/11/27 02:23:35;;;;;;;;;15.00;7.50;;;;;;;;5063099;28;61929;-82
2022/11/27 02:26:18;;;;;;;;;4.00;4.00;;;;;;;;5063828;28;61718;-82
2022/11/27 02:28:57;;;;;;;;;6.50;6.00;;;;;;;;5044891;28;63750;-82
2022/11/27 02:31:41;;;;;;;;;8.00;4.00;;;;;;;;5063264;28;61789;-81
2022/11/27 02:34:27;;;;;;;;;4.00;4.00;;;;;;;;5063629;28;61675;-82
2022/11/27 02:36:58;;;;;;;;;4.00;4.00;;;;;;;;5063349;28;62087;-82
2022/11/27 02:39:28;;;;;;;;;6.00;4.00;;;;;;;;5043685;28;63888;-82
2022/11/27 02:42:02;;;;;;;;;5.00;3.50;;;;;;;;5063481;28;61907;-82
2022/11/27 02:44:30;;;;;;;;;7.00;4.00;;;;;;;;5063436;28;61798;-82
2022/11/27 02:46:55;;;;;;;;;8.75;7.00;;;;;;;;5063619;28;61841;-82
2022/11/27 02:49:21;;;;;;;;;6.75;5.00;;;;;;;;5062395;28;62220;-82
2022/11/27 02:51:49;;;;;;;;;12.00;5.50;;;;;;;;5062678;28;61829;-82
2022/11/27 02:54:19;;;;;;;;;7.00;6.00;;;;;;;;5044888;28;61843;-82
2022/11/27 02:56:47;;;;;;;;;7.00;7.00;;;;;;;;5045012;28;62107;-82
2022/11/27 02:59:13;;;;;;;;;13.75;5.00;;;;;;;;5062461;28;62495;-82
2022/11/27 03:01:41;;;;;;;;;5.25;5.25;;;;;;;;5063015;28;61897;-82
2022/11/27 03:04:10;;;;;;;;;8.25;6.75;;;;;;;;5063500;28;61922;-82
2022/11/27 03:06:39;;;;;;;;;6.00;6.00;;;;;;;;5062739;28;61977;-82
2022/11/27 03:09:09;;;;;;;;;7.25;6.00;;;;;;;;5063526;28;62594;-82
2022/11/27 03:11:35;;;;;;;;;11.50;6.00;;;;;;;;5062737;28;61932;-82
2022/11/27 03:14:03;;;;;;;;;8.00;6.75;;;;;;;;5063137;28;61833;-82
2022/11/27 03:16:42;;;;;;;;;7.75;6.50;;;;;;;;5062888;28;61905;-82
2022/11/27 03:19:10;;;;;;;;;10.75;3.50;;;;;;;;5061902;28;62120;-82
2022/11/27 03:21:41;;;;;;;;;8.25;6.25;;;;;;;;5044522;28;61965;-82
2022/11/27 03:24:07;;;;;;;;;10.25;6.50;;;;;;;;5062859;28;61878;-82
2022/11/27 03:26:33;;;;;;;;;6.75;6.25;;;;;;;;5062882;28;61675;-82
2022/11/27 03:28:59;;;;;;;;;8.50;4.00;;;;;;;;5043784;28;64913;-82
2022/11/27 03:31:25;;;;;;;;;8.25;6.00;;;;;;;;5062857;28;61748;-82
2022/11/27 03:33:51;;;;;;;;;8.00;4.00;;;;;;;;5061820;28;61753;-82
2022/11/27 03:36:18;;;;;;;;;8.25;6.00;;;;;;;;5062937;28;61754;-82
2022/11/27 03:38:45;;;;;;;;;4.00;4.00;;;;;;;;5061672;28;61942;-82
2022/11/27 03:41:26;;;;;;;;;11.25;7.00;;;;;;;;5061808;28;61896;-82
2022/11/27 03:43:59;;;;;;;;;10.25;6.50;;;;;;;;5062538;28;61809;-82
2022/11/27 03:46:36;;;;;;;;;11.75;4.00;;;;;;;;5062622;28;61934;-82
2022/11/27 03:49:13;;;;;;;;;7.00;5.75;;;;;;;;5061075;28;61978;-82
2022/11/27 03:51:46;;;;;;;;;5.00;5.00;;;;;;;;5062330;28;61919;-82
2022/11/27 03:54:23;;;;;;;;;2.25;1.00;;;;;;;;5062255;28;61877;-82
2022/11/27 03:56:58;;;;;;;;;7.00;4.00;;;;;;;;5062681;28;61833;-82
2022/11/27 03:59:27;;;;;;;;;8.00;6.00;;;;;;;;5061779;28;63096;-82
2022/11/27 04:01:52;;;;;;;;;6.00;6.00;;;;;;;;5062057;28;61952;-82
2022/11/27 04:04:17;;;;;;;;;8.25;7.25;;;;;;;;5062267;28;61857;-82
2022/11/27 04:06:43;;;;;;;;;8.00;4.00;;;;;;;;5062145;28;61800;-82
2022/11/27 04:09:08;;;;;;;;;8.00;6.00;;;;;;;;5061331;28;61829;-82
2022/11/27 04:11:33;;;;;;;;;4.50;4.50;;;;;;;;5062147;28;61939;-82
2022/11/27 04:13:58;;;;;;;;;6.50;6.00;;;;;;;;5043964;28;62334;-82
2022/11/27 04:16:24;;;;;;;;;9.00;4.00;;;;;;;;5062367;28;61990;-82
2022/11/27 04:18:49;;;;;;;;;6.25;6.25;;;;;;;;5061215;28;61911;-82
2022/11/27 04:21:15;;;;;;;;;7.00;6.00;;;;;;;;5043578;28;61988;-82
2022/11/27 04:23:41;;;;;;;;;6.75;3.75;;;;;;;;5061943;28;61901;-82
2022/11/27 04:26:06;;;;;;;;;5.25;5.25;;;;;;;;5061907;28;62096;-82
2022/11/27 04:28:31;;;;;;;;;11.25;8.25;;;;;;;;5061425;28;61852;-82
2022/11/27 04:30:57;;;;;;;;;10.50;6.50;;;;;;;;5061769;28;61879;-82
2022/11/27 04:33:22;;;;;;;;;8.00;7.00;;;;;;;;5061598;28;62299;-82
2022/11/27 04:35:48;;;;;;;;;6.75;5.50;;;;;;;;5061886;28;61722;-82
2022/11/27 04:38:13;;;;;;;;;6.50;6.50;;;;;;;;5060734;28;63765;-82
2022/11/27 04:40:38;;;;;;;;;10.75;7.50;;;;;;;;5061631;28;61717;-82
2022/11/27 04:43:04;;;;;;;;;8.25;6.25;;;;;;;;5043504;28;61766;-82
2022/11/27 04:45:29;;;;;;;;;9.25;6.00;;;;;;;;5061840;28;61819;-82
2022/11/27 04:47:54;;;;;;;;;5.00;4.00;;;;;;;;5060916;28;61860;-82
2022/11/27 04:50:20;;;;;;;;;8.25;6.50;;;;;;;;5060800;28;61981;-82
2022/11/27 04:52:45;;;;;;;;;8.00;4.00;;;;;;;;5061254;28;61820;-82
2022/11/27 04:55:10;;;;;;;;;10.50;6.00;;;;;;;;5064677;28;61709;-82
2022/11/27 04:57:36;;;;;;;;;10.00;7.25;;;;;;;;5064855;28;61765;-82
2022/11/27 05:00:02;;;;;;;;;4.25;4.25;;;;;;;;5064692;28;61670;-82
2022/11/27 05:02:28;;;;;;;;;7.00;4.50;;;;;;;;5064257;28;61905;-82
2022/11/27 05:04:53;;;;;;;;;8.50;6.25;;;;;;;;5065418;28;61685;-82
2022/11/27 05:07:18;;;;;;;;;6.50;5.00;;;;;;;;5064168;28;62377;-82
2022/11/27 05:09:44;;;;;;;;;7.25;6.00;;;;;;;;5064659;28;62071;-82
2022/11/27 05:12:09;;;;;;;;;9.25;4.25;;;;;;;;5064893;28;61904;-82
2022/11/27 05:14:34;;;;;;;;;5.50;4.00;;;;;;;;5064617;28;61738;-82
2022/11/27 05:16:59;;;;;;;;;3.25;3.00;;;;;;;;5064177;28;62049;-82
2022/11/27 05:19:26;;;;;;;;;8.50;6.50;;;;;;;;5064109;28;61762;-82
2022/11/27 05:21:51;;;;;;;;;7.00;6.00;;;;;;;;5064743;28;61869;-82
2022/11/27 05:24:17;;;;;;;;;6.75;6.75;;;;;;;;5064390;28;62011;-82
2022/11/27 05:26:43;;;;;;;;;5.25;3.00;;;;;;;;5063834;28;62338;-82
2022/11/27 05:29:09;;;;;;;;;6.75;5.75;;;;;;;;5064500;28;61866;-82
2022/11/27 05:31:34;;;;;;;;;7.75;6.25;;;;;;;;5064128;28;61749;-82
2022/11/27 05:34:00;;;;;;;;;9.75;6.00;;;;;;;;5064352;28;61804;-82
2022/11/27 05:36:25;;;;;;;;;6.75;5.50;;;;;;;;5063608;28;62698;-82
2022/11/27 05:38:51;;;;;;;;;3.25;3.00;;;;;;;;5064281;28;61789;-82
2022/11/27 05:41:16;;;;;;;;;7.75;3.75;;;;;;;;5064349;28;61833;-82
2022/11/27 05:43:41;;;;;;;;;9.25;7.50;;;;;;;;5064486;28;62186;-82
2022/11/27 05:46:08;;;;;;;;;6.50;5.50;;;;;;;;5063264;28;62974;-82
2022/11/27 05:48:34;;;;;;;;;5.50;5.50;;;;;;;;5063798;28;61777;-82
2022/11/27 05:51:00;;;;;;;;;12.00;7.50;;;;;;;;5063802;28;61774;-82
2022/11/27 05:53:25;;;;;;;;;8.50;5.25;;;;;;;;5064196;28;61767;-82
2022/11/27 05:55:50;;;;;;;;;8.75;1.00;;;;;;;;5063331;28;61991;-82
2022/11/27 05:58:15;;;;;;;;;7.50;7.50;;;;;;;;5063994;28;61916;-82
2022/11/27 06:00:41;;;;;;;;;5.50;4.50;;;;;;;;5063484;28;61771;-82
2022/11/27 06:03:06;;;;;;;;;7.50;6.00;;;;;;;;5064343;28;61809;-82
2022/11/27 06:05:31;;;;;;;;;6.50;2.00;;;;;;;;5063269;28;61937;-82
2022/11/27 06:07:56;;;;;;;;;6.50;6.00;;;;;;;;5063355;28;62993;-82
2022/11/27 06:10:22;;;;;;;;;7.00;4.00;;;;;;;;5045877;28;61902;-82
2022/11/27 06:12:47;;;;;;;;;8.00;6.50;;;;;;;;5063761;28;61884;-82
2022/11/27 06:15:12;;;;;;;;;7.25;5.00;;;;;;;;5062984;28;61923;-82
2022/11/27 06:17:37;;;;;;;;;8.50;7.00;;;;;;;;5064070;28;61988;-82
2022/11/27 06:20:03;;;;;;;;;8.00;8.00;;;;;;;;5063070;28;61826;-82
2022/11/27 06:22:29;;;;;;;;;7.75;7.25;;;;;;;;5063171;28;61818;-82
2022/11/27 06:24:54;;;;;;;;;7.75;6.50;;;;;;;;5063084;28;61899;-82
2022/11/27 06:27:20;;;;;;;;;8.00;5.75;;;;;;;;5063446;28;61718;-82
2022/11/27 06:29:45;;;;;;;;;9.50;7.00;;;;;;;;5063452;28;61786;-82
2022/11/27 06:32:10;;;;;;;;;5.00;5.00;;;;;;;;5063514;28;61809;-82
2022/11/27 06:34:36;;;;;;;;;8.25;6.25;;;;;;;;5062593;28;62504;-82
2022/11/27 06:37:08;;;;;;;;;10.50;4.50;;;;;;;;5063416;28;61795;-82
2022/11/27 06:39:37;;;;;;;;;9.00;7.00;;;;;;;;5063504;28;61750;-82
2022/11/27 06:42:03;;;;;;;;;10.25;6.75;;;;;;;;5063340;28;61821;-82
2022/11/27 06:44:28;;;;;;;;;8.25;7.00;;;;;;;;5063015;28;62748;-82
2022/11/27 06:46:53;;;;;;;;;7.00;4.00;;;;;;;;5063219;28;61902;-82
2022/11/27 06:49:19;;;;;;;;;8.00;6.00;;;;;;;;5063042;28;61683;-82
2022/11/27 06:51:45;;;;;;;;;7.75;5.25;;;;;;;;5063284;28;61850;-82
2022/11/27 06:54:10;;;;;;;;;8.25;6.50;;;;;;;;5062148;28;61919;-82
2022/11/27 06:56:35;;;;;;;;;4.75;4.50;;;;;;;;5063157;28;62192;-82
2022/11/27 06:59:01;;;;;;;;;6.00;4.00;;;;;;;;5062944;28;62140;-82
2022/11/27 07:01:27;;;;;;;;;5.50;3.25;;;;;;;;5044809;28;62056;-82
2022/11/27 07:03:52;;;;;;;;;7.00;6.00;;;;;;;;5062552;28;62781;-82
2022/11/27 07:06:19;;;;;;;;;5.25;3.25;;;;;;;;5063102;28;61934;-82
2022/11/27 07:08:45;;;;;;;;;8.00;3.50;;;;;;;;5062916;28;61920;-82
2022/11/27 07:11:15;;;;;;;;;7.50;6.25;;;;;;;;5062754;28;61719;-82
2022/11/27 07:13:40;;;;;;;;;7.50;5.50;;;;;;;;5062360;28;62472;-82
2022/11/27 07:16:07;;;;;;;;;5.75;5.00;;;;;;;;5061974;28;61988;-82
2022/11/27 07:18:34;;;;;;;;;7.25;3.50;;;;;;;;5062578;28;61920;-82
2022/11/27 07:20:59;;;;;;;;;5.75;5.00;;;;;;;;5062720;28;61828;-82
2022/11/27 07:23:24;;;;;;;;;14.25;8.00;;;;;;;;5061648;28;62683;-82
2022/11/27 07:25:49;;;;;;;;;4.50;4.50;;;;;;;;5062432;28;61699;-82
2022/11/27 07:28:15;;;;;;;;;6.00;3.75;;;;;;;;5044491;28;61814;-82
2022/11/27 07:30:40;;;;;;;;;9.25;6.50;;;;;;;;5062801;28;61842;-82
2022/11/27 07:33:05;;;;;;;;;10.75;6.00;;;;;;;;5061654;28;61825;-82
2022/11/27 07:35:30;;;;;;;;;6.00;2.50;;;;;;;;5062306;28;61771;-82
2022/11/27 07:37:56;;;;;;;;;9.00;5.00;;;;;;;;5062341;28;61761;-82
2022/11/27 07:40:21;;;;;;;;;4.50;4.50;;;;;;;;5062100;28;61766;-82
2022/11/27 07:42:46;;;;;;;;;10.25;6.25;;;;;;;;5061829;28;61988;-82
2022/11/27 07:45:12;;;;;;;;;11.75;4.50;;;;;;;;5062602;28;61864;-82
2022/11/27 07:47:38;;;;;;;;;7.50;5.75;;;;;;;;5061987;28;62038;-82
2022/11/27 07:50:06;;;;;;;;;5.50;3.75;;;;;;;;5044298;28;61848;-82
2022/11/27 07:52:32;;;;;;;;;8.00;6.00;;;;;;;;5060987;28;61906;-82
2022/11/27 07:54:58;;;;;;;;;2.00;2.00;;;;;;;;5044125;28;61696;-82
2022/11/27 07:57:23;;;;;;;;;9.00;7.25;;;;;;;;5062276;28;61860;-81
2022/11/27 07:59:48;;;;;;;;;9.75;8.75;;;;;;;;5062253;28;61791;-82
2022/11/27 08:02:13;;;;;;;;;7.00;7.00;;;;;;;;5062153;28;61926;-82
2022/11/27 08:04:39;;;;;;;;;7.00;7.00;;;;;;;;5045317;28;62009;-83
2022/11/27 08:07:04;;;;;;;;;8.00;5.50;;;;;;;;5062389;28;61761;-84
2022/11/27 08:09:29;;;;;;;;;5.00;3.50;;;;;;;;5062003;28;62023;-83
2022/11/27 08:11:55;;;;;;;;;6.75;5.50;;;;;;;;5061636;28;62586;-84
2022/11/27 08:14:20;;;;;;;;;7.50;7.00;;;;;;;;5061992;28;61739;-83
2022/11/27 08:16:45;;;;;;;;;9.50;7.00;;;;;;;;5060280;28;62209;-84
2022/11/27 08:19:11;;;;;;;;;6.25;4.50;;;;;;;;5061839;28;61780;-84
2022/11/27 08:21:36;;;;;;;;;8.25;7.25;;;;;;;;5060812;28;61908;-84
2022/11/27 08:24:02;;;;;;;;;8.00;7.00;;;;;;;;5059913;28;61982;-83
2022/11/27 08:26:27;;;;;;;;;8.00;7.00;;;;;;;;5047028;28;61746;-84
2022/11/27 08:28:53;;;;;;;;;7.00;6.25;;;;;;;;5064748;28;61777;-84
2022/11/27 08:31:22;;;;;;;;;7.75;6.75;;;;;;;;5065097;28;63146;-85
2022/11/27 08:33:47;;;;;;;;;11.00;6.75;;;;;;;;5065295;28;61769;-85
2022/11/27 08:36:12;;;;;;;;;7.50;6.00;;;;;;;;5065479;28;61790;-84
2022/11/27 08:38:38;;;;;;;;;9.50;7.50;;;;;;;;5064897;28;61786;-85
2022/11/27 08:41:04;;;;;;;;;11.00;6.00;;;;;;;;5064353;28;61958;-85
2022/11/27 08:43:30;;;;;;;;;8.75;7.00;;;;;;;;5065432;28;61702;-86
2022/11/27 08:45:56;;;;;;;;;7.50;7.25;;;;;;;;5065048;28;61647;-86
2022/11/27 08:48:21;;;;;;;;;13.00;5.00;;;;;;;;5065586;28;61789;-84
2022/11/27 08:50:47;;;;;;;;;7.75;6.25;;;;;;;;5064484;28;61686;-82
2022/11/27 08:53:13;;;;;;;;;7.50;6.25;;;;;;;;5063375;28;61806;-85
2022/11/27 08:55:38;;;;;;;;;9.00;8.75;;;;;;;;5064912;28;61829;-85
2022/11/27 08:58:03;;;;;;;;;11.50;6.00;;;;;;;;5046407;28;61746;-85
2022/11/27 09:00:30;;;;;;;;;11.00;7.50;;;;;;;;5063588;28;61754;-84
2022/11/27 09:02:55;;;;;;;;;7.25;7.00;;;;;;;;5063979;28;61907;-85
2022/11/27 09:05:20;;;;;;;;;7.75;7.50;;;;;;;;5046078;28;61961;-82
2022/11/27 09:07:45;;;;;;;;;8.00;7.00;;;;;;;;5064309;28;62157;-82
2022/11/27 09:10:11;;;;;;;;;8.25;8.00;;;;;;;;5064054;28;61923;-81
2022/11/27 09:12:36;;;;;;;;;13.25;12.25;;;;;;;;5063884;28;61917;-83
2022/11/27 09:15:01;;;;;;;;;9.50;8.25;;;;;;;;5046436;28;61893;-82
2022/11/27 09:17:27;;;;;;;;;12.25;8.00;;;;;;;;5065209;28;61896;-81
2022/11/27 09:19:52;;;;;;;;;10.25;8.50;;;;;;;;5063867;28;61985;-82
2022/11/27 09:22:17;;;;;;;;;6.75;5.75;;;;;;;;5046153;28;61891;-82
2022/11/27 09:24:43;;;;;;;;;7.25;6.75;;;;;;;;5064490;28;61868;-83
2022/11/27 09:27:08;;;;;;;;;7.75;7.75;;;;;;;;5065228;28;61898;-80
2022/11/27 09:29:34;;;;;;;;;12.50;6.50;;;;;;;;5064511;28;61981;-79
2022/11/27 09:31:59;;;;;;;;;12.25;11.00;;;;;;;;5061611;28;62123;-84
2022/11/27 09:34:24;;;;;;;;;7.50;7.00;;;;;;;;5063049;28;62025;-81
2022/11/27 09:36:50;;;;;;;;;12.50;6.00;;;;;;;;5045191;28;61964;-80
2022/11/27 09:39:18;;;;;;;;;8.25;8.00;;;;;;;;5042705;28;63620;-80
2022/11/27 09:41:55;;;;;;;;;11.00;9.00;;;;;;;;5046840;28;62007;-81
2022/11/27 09:44:38;;;;;;;;;9.50;8.50;;;;;;;;5065235;28;62027;-81
2022/11/27 09:47:09;;;;;;;;;9.75;7.25;;;;;;;;5063995;28;61877;-79
2022/11/27 09:49:38;;;;;;;;;12.75;8.75;;;;;;;;5063493;28;61868;-83
2022/11/27 09:52:13;;;;;;;;;8.75;8.00;;;;;;;;5062496;28;61888;-81
2022/11/27 09:54:47;;;;;;;;;8.00;4.25;;;;;;;;5042584;28;61977;-81
2022/11/27 09:57:16;;;;;;;;;12.50;7.75;;;;;;;;5063879;28;61711;-82
2022/11/27 09:59:48;;;;;;;;;8.50;6.25;;;;;;;;5063694;28;62844;-82
2022/11/27 10:02:17;;;;;;;;;10.50;6.25;;;;;;;;5063883;28;62010;-81
2022/11/27 10:04:43;;;;;;;;;7.75;6.00;;;;;;;;5064030;28;61888;-81
2022/11/27 10:07:23;;;;;;;;;8.75;6.75;;;;;;;;5063785;28;61794;-81
2022/11/27 10:10:12;;;;;;;;;9.00;4.75;;;;;;;;5045095;28;64647;-81
2022/11/27 10:12:40;;;;;;;;;12.25;8.00;;;;;;;;5055267;28;61943;-81
2022/11/27 10:15:11;;;;;;;;;7.25;5.00;;;;;;;;5063816;28;61721;-80
2022/11/27 10:17:39;;;;;;;;;14.75;8.00;;;;;;;;5064177;28;61876;-81
2022/11/27 10:20:16;;;;;;;;;9.25;6.75;;;;;;;;5062626;28;62725;-82
2022/11/27 10:22:49;;;;;;;;;11.00;8.75;;;;;;;;5063548;28;61989;-82
2022/11/27 10:25:19;;;;;;;;;6.75;6.75;;;;;;;;5063767;28;61885;-82
2022/11/27 10:27:44;;;;;;;;;7.50;6.25;;;;;;;;5045681;28;61751;-82
2022/11/27 10:30:15;;;;;;;;;9.50;9.00;;;;;;;;5062967;28;61932;-82
2022/11/27 10:32:40;;;;;;;;;11.75;8.75;;;;;;;;5063164;28;61953;-82
2022/11/27 10:35:16;;;;;;;;;12.25;9.75;;;;;;;;5063563;28;61948;-84
2022/11/27 10:37:51;;;;;;;;;8.00;7.50;;;;;;;;5063310;28;61940;-84
2022/11/27 10:40:22;;;;;;;;;21.25;16.00;;;;;;;;5063218;28;61765;-86
2022/11/27 10:42:58;;;;;;;;;20.75;15.00;;;;;;;;5063637;28;61957;-85
2022/11/27 10:45:28;;;;;;;;;10.00;8.25;;;;;;;;5064482;28;61865;-85
2022/11/27 10:47:53;;;;;;;;;11.50;11.00;;;;;;;;5063116;28;61939;-84
2022/11/27 10:50:19;;;;;;;;;15.25;13.50;;;;;;;;5061459;28;62035;-81
2022/11/27 10:52:48;;;;;;;;;14.50;12.00;;;;;;;;5043836;28;61982;-84
2022/11/27 10:55:19;;;;;;;;;14.00;11.25;;;;;;;;5063630;28;62088;-86
2022/11/27 10:57:56;;;;;;;;;8.25;6.25;;;;;;;;5064297;28;61821;-86
2022/11/27 11:00:23;;;;;;;;;11.00;7.50;;;;;;;;5059967;28;61762;-87
2022/11/27 11:02:58;;;;;;;;;8.25;8.25;;;;;;;;5062429;28;62060;-86
2022/11/27 11:05:24;;;;;;;;;18.25;9.00;;;;;;;;5061550;28;62051;-86
2022/11/27 11:08:04;;;;;;;;;12.50;8.25;;;;;;;;5061854;28;61919;-82
2022/11/27 11:10:34;;;;;;;;;14.00;7.75;;;;;;;;5042325;28;63829;-83
2022/11/27 11:13:09;;;;;;;;;10.00;8.75;;;;;;;;5060924;28;61958;-83
2022/11/27 11:15:42;;;;;;;;;33.75;29.25;;;;;;;;5044996;28;61943;-83
2022/11/27 11:18:15;;;;;;;;;20.50;16.50;;;;;;;;5044398;28;61978;-82
2022/11/27 11:20:42;;;;;;;;;19.75;15.00;;;;;;;;5061379;28;63335;-83
2022/11/27 11:23:17;;;;;;;;;25.50;18.50;;;;;;;;5061832;28;61956;-83
2022/11/27 11:25:47;;;;;;;;;23.00;16.75;;;;;;;;5062668;28;61859;-84
2022/11/27 11:28:15;;;;;;;;;13.25;12.75;;;;;;;;5044785;28;61879;-84
2022/11/27 11:30:40;;;;;;;;;20.75;14.75;;;;;;;;5061917;28;61798;-83
2022/11/27 11:33:11;;;;;;;;;17.50;15.00;;;;;;;;5044137;28;62113;-82
2022/11/27 11:35:36;;;;;;;;;19.50;14.75;;;;;;;;5061902;28;61667;-81
2022/11/27 11:38:03;;;;;;;;;24.25;17.00;;;;;;;;5062724;28;61852;-82
2022/11/27 11:40:30;;;;;;;;;11.50;10.75;;;;;;;;5061829;28;61788;-83
2022/11/27 11:42:57;;;;;;;;;23.75;20.00;;;;;;;;5062274;28;61967;-83
2022/11/27 11:45:23;;;;;;;;;18.25;15.75;;;;;;;;5044969;28;61924;-83
2022/11/27 11:47:59;;;;;;;;;20.00;15.25;;;;;;;;5062559;28;61709;-83
2022/11/27 11:50:44;;;;;;;;;16.50;13.75;;;;;;;;5061408;28;62896;-82
2022/11/27 11:53:21;;;;;;;;;19.75;13.00;;;;;;;;5061511;28;61914;-83
2022/11/27 11:56:05;;;;;;;;;21.50;15.75;;;;;;;;5044818;28;61842;-82
2022/11/27 11:58:30;;;;;;;;;22.00;19.00;;;;;;;;5044620;28;61803;-83
2022/11/27 12:01:06;;;;;;;;;14.00;10.00;;;;;;;;5040014;28;63697;-82
2022/11/27 12:03:45;;;;;;;;;19.50;14.00;;;;;;;;5040056;28;61963;-83
2022/11/27 12:06:16;;;;;;;;;11.00;8.25;;;;;;;;5042401;28;61686;-81
2022/11/27 12:08:44;;;;;;;;;18.75;14.75;;;;;;;;5041854;28;61698;-82
2022/11/27 12:11:15;;;;;;;;;20.00;14.00;;;;;;;;5040489;28;62050;-84
2022/11/27 12:13:47;;;;;;;;;22.00;15.00;;;;;;;;5039984;28;61914;-87
2022/11/27 12:16:22;;;;;;;;;22.00;16.50;;;;;;;;5038640;28;61992;-86
2022/11/27 12:19:14;;;;;;;;;17.75;15.75;;;;;;;;5029542;28;62162;-87
2022/11/27 12:21:42;;;;;;;;;15.50;13.75;;;;;;;;5037814;28;61987;-83
2022/11/27 12:24:13;;;;;;;;;17.00;15.50;;;;;;;;5035741;28;61953;-81
2022/11/27 12:26:52;;;;;;;;;17.50;14.00;;;;;;;;5033798;28;62103;-85
2022/11/27 12:29:31;;;;;;;;;24.00;21.50;;;;;;;;5039507;28;61877;-84
2022/11/27 12:32:22;;;;;;;;;23.25;17.50;;;;;;;;5040888;28;62003;-86
2022/11/27 12:35:18;;;;;;;;;16.25;16.25;;;;;;;;5040760;28;61858;-83
2022/11/27 12:38:16;;;;;;;;;16.75;13.25;;;;;;;;5037074;28;61853;-83
2022/11/27 12:41:00;;;;;;;;;13.25;10.50;;;;;;;;4962764;28;62188;-84
2022/11/27 12:43:29;;;;;;;;;18.00;13.00;;;;;;;;4979156;28;63041;-84
2022/11/27 12:45:54;;;;;;;;;15.50;13.50;;;;;;;;4979066;28;61992;-84
2022/11/27 12:48:36;;;;;;;;;18.25;14.75;;;;;;;;4979061;28;62249;-83
2022/11/27 12:51:49;;;;;;;;;;;;;;;;;;;;;
2022/11/27 12:54:26;;;;;;;;;19.00;15.75;;;;;;;;4973914;28;91932;-83
2022/11/27 12:57:06;;;;;;;;;13.75;11.50;;;;;;;;4977062;28;61863;-83
2022/11/27 12:59:38;;;;;;;;;22.75;16.00;;;;;;;;4976485;28;62138;-83
2022/11/27 13:02:03;;;;;;;;;16.50;15.25;;;;;;;;4977816;28;62034;-84
2022/11/27 13:04:36;;;;;;;;;20.00;15.00;;;;;;;;4977602;28;65058;-85
2022/11/27 13:10:26;;;;;;;;;25.75;17.00;;;;;;;;4916156;28;61970;-85
2022/11/27 13:16:12;;;;;;;;;21.00;15.25;;;;;;;;4929607;28;62728;-86
2022/11/27 13:18:53;;;;;;;;;25.00;21.25;;;;;;;;4966534;28;61943;-86
2022/11/27 13:21:23;;;;;;;;;21.25;14.25;;;;;;;;4967023;28;62176;-86
2022/11/27 13:23:49;;;;;;;;;18.00;16.00;;;;;;;;4947000;28;62299;-84
2022/11/27 13:26:50;;;;;;;;;;;;;;;;;;;;;
2022/11/27 13:29:45;;;;;;;;;17.75;14.50;;;;;;;;4967574;28;73866;-82
2022/11/27 13:35:53;;;;;;;;;;;;;;;;;;;;;
2022/11/27 13:41:42;;;;;;;;;24.00;16.75;;;;;;;;4952791;28;62066;-81
2022/11/27 13:44:29;;;;;;;;;17.50;12.00;;;;;;;;4956130;28;61741;-80
2022/11/27 13:47:01;;;;;;;;;18.75;15.00;;;;;;;;4973816;28;62179;-81
2022/11/27 13:49:42;;;;;;;;;;;;;;;;;;;;;
2022/11/27 13:52:13;;;;;;;;;12.25;12.25;;;;;;;;4968788;28;75764;-80
2022/11/27 13:55:08;;;;;;;;;16.25;10.00;;;;;;;;4974804;28;62118;-84
2022/11/27 13:57:34;;;;;;;;;12.75;9.50;;;;;;;;4956531;28;62190;-82
2022/11/27 14:00:05;;;;;;;;;9.00;8.00;;;;;;;;4974928;28;62251;-82
2022/11/27 14:02:40;;;;;;;;;16.75;14.50;;;;;;;;4961494;28;61957;-80
2022/11/27 14:05:05;;;;;;;;;15.00;13.00;;;;;;;;4962712;28;62454;-80
2022/11/27 14:07:39;;;;;;;;;12.00;9.75;;;;;;;;4977460;28;62138;-80
2022/11/27 14:10:13;;;;;;;;;17.00;12.00;;;;;;;;5012872;28;62572;-80
2022/11/27 14:12:39;;;;;;;;;16.75;15.25;;;;;;;;5018649;28;62028;-81
2022/11/27 14:15:19;;;;;;;;;10.25;10.00;;;;;;;;5021237;28;62204;-81
2022/11/27 14:17:46;;;;;;;;;13.25;12.25;;;;;;;;5013325;28;61818;-81
2022/11/27 14:20:14;;;;;;;;;13.00;12.00;;;;;;;;5017242;28;62538;-79
2022/11/27 14:22:40;;;;;;;;;13.75;11.75;;;;;;;;5017883;28;61926;-80
2022/11/27 14:25:24;;;;;;;;;13.00;12.00;;;;;;;;5019809;28;62147;-78
2022/11/27 14:27:57;;;;;;;;;14.75;11.50;;;;;;;;5002838;28;62159;-78
2022/11/27 14:30:24;;;;;;;;;13.50;12.00;;;;;;;;5015775;28;62060;-80
2022/11/27 14:32:49;;;;;;;;;12.75;10.25;;;;;;;;5020661;28;62091;-82
2022/11/27 14:35:22;;;;;;;;;19.00;12.50;;;;;;;;5018988;28;62336;-81
2022/11/27 14:37:48;;;;;;;;;11.25;10.00;;;;;;;;5021673;28;62573;-79
2022/11/27 14:40:14;;;;;;;;;15.50;12.25;;;;;;;;5017674;28;61914;-79
2022/11/27 14:42:39;;;;;;;;;11.75;11.75;;;;;;;;5020661;28;61794;-82
2022/11/27 14:45:06;;;;;;;;;17.25;13.00;;;;;;;;5021205;28;61788;-77
2022/11/27 14:47:33;;;;;;;;;18.00;16.00;;;;;;;;5021991;28;61852;-78
2022/11/27 14:49:58;;;;;;;;;17.00;15.25;;;;;;;;5020284;28;61956;-77
2022/11/27 14:52:25;;;;;;;;;16.25;15.00;;;;;;;;5021222;28;61820;-80
2022/11/27 14:54:51;;;;;;;;;21.00;17.25;;;;;;;;5021408;28;61783;-83
2022/11/27 14:57:24;;;;;;;;;40.25;31.50;;;;;;;;5021331;28;61806;-80
2022/11/27 14:59:59;;;;;;;;;26.75;20.50;;;;;;;;5031221;28;62880;-80
2022/11/27 15:02:25;;;;;;;;;14.00;12.00;;;;;;;;5061239;28;61821;-79